ADDS METAR Data INFO
IDs: Format: Raw Decoded Include TAF

Data at: 1613 UTC 14 Aug 2018

KERV 141555Z AUTO 17015G22KT 10SM SCT025 28/20 A3002 RMK AO2 T02750200
KERV 141535Z AUTO 16013G19KT 10SM SCT025 27/20 A3002 RMK AO2 T02670201
KERV 141515Z AUTO 17014G21KT 10SM SCT021 26/20 A3002 RMK AO2 T02610202
KERV 141455Z AUTO 18011KT 10SM SCT017 25/21 A3002 RMK AO2 T02490206
KERV 141435Z AUTO 18009G15KT 7SM BKN015 25/21 A3003 RMK AO2 T02470211
KERV 141415Z AUTO 17010KT 7SM BKN015 24/21 A3003 RMK AO2 T02380205
KERV 141355Z AUTO 16009KT 7SM SCT013 23/21 A3002 RMK AO2 T02330205
KERV 141335Z AUTO 17010G15KT 7SM SCT010 BKN013 23/21 A3002 RMK AO2 T02280205
KERV 141315Z AUTO 16008KT 5SM BR BKN011 BKN018 22/20 A3003 RMK AO2 T02200198
KERV 141255Z AUTO 16007KT 7SM SCT011 BKN015 BKN020 22/20 A3002 RMK AO2 T02200200
KERV 141235Z AUTO 17006KT 7SM SCT009 SCT017 22/20 A3002 RMK AO2 T02200200
KERV 141215Z AUTO 17008KT 7SM SCT014 SCT019 22/20 A3002 RMK AO2 T02200200

KT82 141555Z AUTO 18015G21KT 10SM CLR 28/16 A3002 RMK AO2 T02780163
KT82 141535Z AUTO 20012G20KT 10SM CLR 27/17 A3002 RMK AO2 T02740170
KT82 141515Z AUTO 20015G20KT 10SM CLR 27/18 A3002 RMK AO2 T02650177
KT82 141455Z AUTO 20016G23KT 10SM CLR 26/17 A3002 RMK AO2 T02550174
KT82 141435Z AUTO 20013G16KT 10SM CLR 25/18 A3002 RMK AO2 T02460181
KT82 141415Z AUTO 19003KT 10SM SCT120 24/18 A3002 RMK AO2 T02400184
KT82 141355Z AUTO 19003G14KT 10SM SCT016 BKN120 24/19 A3002 RMK AO2 T02360186
KT82 141335Z AUTO 20009KT 10SM BKN016 23/19 A3002 RMK AO2 T02300187
KT82 141315Z AUTO 19012G16KT 10SM BKN016 23/19 A3002 RMK AO2 T02270186
KT82 141255Z AUTO 19008KT 10SM BKN016 BKN020 23/19 A3002 RMK AO2 T02260188
KT82 141235Z AUTO 19009KT 10SM SCT016 22/19 A3002 RMK AO2 T02230188
KT82 141215Z AUTO 17007KT 10SM SCT016 22/19 A3002 RMK AO2 T02200187

KJCT 141551Z AUTO 19012G18KT 10SM SCT027 BKN100 27/21 A3001 RMK AO2 SLP124 T02720211
KJCT 141451Z AUTO 17013G18KT 10SM SCT100 25/21 A3001 RMK AO2 SLP124 T02500206 52004
KJCT 141351Z AUTO 17008KT 10SM CLR 24/21 A3000 RMK AO2 SLP123 T02390206
KJCT 141251Z AUTO 17009KT 10SM CLR 24/21 A3000 RMK AO2 SLP122 T02390206

K5C1 141555Z AUTO 16012G17KT 10SM SCT024 SCT030 26/20 A3003 RMK AO1
K5C1 141535Z AUTO 19009G14KT 10SM SCT022 26/20 A3004 RMK AO1
K5C1 141515Z AUTO 19011G18KT 10SM BKN020 BKN029 25/20 A3003 RMK AO1
K5C1 141455Z AUTO 17012G17KT 10SM OVC020 26/21 A3004 RMK AO1
K5C1 141435Z AUTO 19010G16KT 10SM OVC018 24/20 A3004 RMK AO1
K5C1 141415Z AUTO 17011G16KT 10SM OVC016 25/21 A3004 RMK AO1
K5C1 141355Z AUTO 19008KT 10SM OVC016 23/21 A3004 RMK AO1
K5C1 141335Z AUTO 18006KT 7SM BKN016 BKN021 23/21 A3004 RMK AO1
K5C1 141315Z AUTO 19008KT 10SM BKN016 OVC023 22/21 A3003 RMK AO1
K5C1 141255Z AUTO 20007KT 7SM BKN014 OVC020 22/21 A3003 RMK AO1
K5C1 141235Z AUTO 18007KT 7SM OVC014 22/21 A3003 RMK AO1
K5C1 141215Z AUTO 18007KT 7SM OVC014 22/21 A3003 RMK AO1

KHDO 141551Z AUTO 17013KT 10SM FEW025 30/22 A3000 RMK AO2 SLP140 T03000217
KHDO 141516Z AUTO 17014KT 10SM FEW019 29/22 A3000 RMK AO2 T02890217
KHDO 141451Z AUTO 16010KT 10SM SCT016 BKN021 28/22 A3000 RMK AO2 SLP142 T02780222 51004
KHDO 141351Z AUTO 15008KT 10SM BKN015 26/23 A3000 RMK AO2 SLP142 T02610228
KHDO 141337Z AUTO 15008KT 10SM BKN015 26/23 A3000 RMK AO2 T02560228
KHDO 141251Z AUTO 13008KT 9SM SCT015 24/23 A2999 RMK AO2 SLP139 T02440228

KMWL 141553Z AUTO 14006KT 9SM OVC100 23/22 A2997 RMK AO2 RAE04B20E49 SLP138 P0000 T02330217
KMWL 141453Z AUTO 14007KT 9SM -RA OVC095 23/21 A2996 RMK AO2 SLP133 P0003 60010 T02280211 51009
KMWL 141353Z AUTO 14009KT 3SM RA BR FEW075 OVC090 22/21 A2996 RMK AO2 RAB14 SLP132 P0006 T02220206
KMWL 141343Z AUTO 14009KT 5SM -RA BR SCT075 OVC090 22/21 A2995 RMK AO2 RAB14 P0004 T02220206
KMWL 141333Z AUTO 14011KT 2 1/2SM RA BR FEW080 OVC090 22/21 A2995 RMK AO2 RAB14 P0004 T02220206
KMWL 141303Z AUTO 15008KT 10SM VCTS SCT075 OVC090 23/20 A2994 RMK AO2 T02280200
KMWL 141253Z AUTO 14011KT 10SM SCT075 OVC095 23/21 A2994 RMK AO2 RAB03E46 SLP126 P0001 T02280206

KADM 141555Z 19010G15KT 7SM OVC037 24/19 A2998 RMK LTG DSNT NE AND S
KADM 141455Z 16004KT 10SM OVC039 24/22 A2995 RMK LTG DSNT N AND NE
KADM 141355Z 15006KT 10SM BKN043 BKN070 24/22 A2994
KADM 141255Z 17006KT 7SM -VCTSRA BKN017 BKN026 BKN050 23/22 A2994

KJLN 141553Z 21012KT 10SM OVC012 23/21 A2997 RMK AO2 SLP137 T02330211
KJLN 141453Z 20009KT 10SM OVC012 23/21 A2996 RMK AO2 SLP136 60000 T02280206 53004
KJLN 141406Z 19012KT 10SM OVC010 23/21 A2995 RMK AO2 T02280206
KJLN 141353Z 19010KT 10SM OVC009 23/21 A2995 RMK AO2 SLP132 T02280211
KJLN 141253Z 19009KT 10SM OVC008 22/21 A2995 RMK AO2 RAE1157 SLP131 P0000 T02220206
KJLN 141234Z 18007KT 10SM OVC009 22/21 A2995 RMK AO2 RAE1157 P0000 T02220206

KSZL 141558Z 18008KT 10SM BKN010 OVC012 23/22 A2991 RMK AO2A SLP125 P0001 T02280221 $
KSZL 141538Z 17007KT 10SM BKN010 OVC012 23/22 A2991 RMK AO2A SLP125 $
KSZL 141505Z 16007KT 5SM -DZ OVC013 22/22 A2991 RMK AO2A SLP125 $
KSZL 141459Z 16007KT 5SM BR BKN013 OVC020 22/22 A2990 RMK AO2A SLP121 60006 T02220222 58003 $
KSZL 141441Z COR 16007KT 3SM -RABR OVC020 22/22 A2991 RMK AO2A SLP125 $ COR 1445
KSZL 141405Z 15005KT 5SM OVC021 22/22 A2990 RMK SLP121 P0004 60006 T02200220 58000 $
KSZL 141256Z 16007KT 4SM -RA BKN029 OVC050 22/22 A2992 RMK SLP128 P0002 T02180216 $

KCOU 141554Z 19008KT 9SM -RA BKN012 BKN095 OVC120 23/21 A2999 RMK AO2 RAB25 SLP146 P0000 T02330211
KCOU 141552Z 18009KT 10SM -RA BKN012 BKN095 OVC120 23/21 A2999 RMK AO2 RAB25 P0000
KCOU 141454Z 17008KT 10SM FEW050 BKN100 23/21 A2998 RMK AO2 RAB21E31 SLP144 P0000 60000 T02330206 50003
KCOU 141354Z 19009KT 10SM FEW075 BKN100 BKN120 23/21 A2999 RMK AO2 RAB38E49 SLP145 P0000 T02330206
KCOU 141254Z 13005KT 10SM SCT080 OVC100 22/20 A2998 RMK AO2 SLP142 T02220200

KCWI 141556Z AUTO 18007KT 10SM CLR 28/21 A3000 RMK AO2 SLP172 T02830206
KCWI 141456Z AUTO 17005KT 10SM CLR 27/22 A3000 RMK AO2 SLP171 T02670217 58003
KCWI 141356Z AUTO 17004KT 9SM CLR 23/21 A3000 RMK AO2 SLP174 T02330211
KCWI 141256Z AUTO 00000KT 5SM BR CLR 20/19 A3001 RMK AO2 SLP178 T02000194

KJLN 141553Z 21012KT 10SM OVC012 23/21 A2997 RMK AO2 SLP137 T02330211
KJLN 141453Z 20009KT 10SM OVC012 23/21 A2996 RMK AO2 SLP136 60000 T02280206 53004
KJLN 141406Z 19012KT 10SM OVC010 23/21 A2995 RMK AO2 T02280206
KJLN 141353Z 19010KT 10SM OVC009 23/21 A2995 RMK AO2 SLP132 T02280211
KJLN 141253Z 19009KT 10SM OVC008 22/21 A2995 RMK AO2 RAE1157 SLP131 P0000 T02220206
KJLN 141234Z 18007KT 10SM OVC009 22/21 A2995 RMK AO2 RAE1157 P0000 T02220206

KOSH 141553Z VRB06KT 9SM CLR 28/18 A2997 RMK AO2 SLP132 T02830183
KOSH 141453Z VRB05KT 9SM CLR 27/20 A2997 RMK AO2 SLP134 T02670200 58001
KOSH 141353Z 26003KT 8SM CLR 25/20 A2998 RMK AO2 SLP138 T02500200
KOSH 141253Z 26006KT 7SM CLR 22/19 A2998 RMK AO2 SLP139 T02220194